Home   Weather   United Kingdom   Hitchin   Past weeks
Flag for United Kingdom

Past Weather in Hitchin, England, United Kingdom — Yesterday and Last 2 Weeks

Currently: 46 °F. Overcast. (Weather station: Luton Airport, United Kingdom). See more current weather

Past Weather in Hitchin — Graph

°F

Hitchin Temperature Yesterday

Maximum temperature yesterday: 54 °F (at 12:50 pm)
Minimum temperature yesterday: 43 °F (at 10:50 pm)
Average temperature yesterday: 48 °F

High & Low Weather Summary for the Past Weeks

 TemperatureHumidityPressure
High54 °F (Feb 3, 12:50 pm)100% (Jan 21, 2:20 am)30.69 "Hg (Jan 21, 2:20 am)
Low25 °F (Jan 22, 7:20 am)57% (Jan 31, 4:20 pm)30.07 "Hg (Jan 20, 11:20 am)
Average39 °F88%30.41 "Hg
* Reported Jan 20 11:20 am — Feb 4 11:20 am, Hitchin. Weather by CustomWeather, © 2023

Note: Actual official high and low records may vary slightly from our data, if they occured in-between our weather recording intervals... More about our weather records

Hitchin Weather History for the Previous 24 Hours

Scroll right to see more
 ConditionsComfort  
Time TempWeatherWind HumidityBarometerVisibility
11:20 am
Sat, Feb 4
48 °FOvercast.10 mph76%30.66 "HgN/A
10:50 am46 °FOvercast.10 mph82%30.66 "HgN/A
10:20 am46 °FOvercast.10 mph87%30.63 "HgN/A
9:50 am46 °FOvercast.10 mph87%30.63 "HgN/A
9:20 am46 °FOvercast.12 mph87%30.63 "HgN/A
8:50 am45 °FOvercast.10 mph93%30.63 "HgN/A
7:20 am45 °FMostly cloudy.12 mph93%30.60 "HgN/A
6:50 am45 °FMostly cloudy.12 mph93%30.60 "HgN/A
6:20 am45 °FMostly cloudy.12 mph100%30.60 "HgN/A
5:50 am45 °FMostly cloudy.9 mph100%30.60 "HgN/A
5:20 am45 °FOvercast.9 mph100%30.60 "HgN/A
4:50 am45 °FOvercast.8 mph93%30.57 "HgN/A
4:20 am45 °FOvercast.9 mph93%30.57 "HgN/A
3:50 am45 °FOvercast.9 mph93%30.57 "HgN/A
3:20 am45 °FOvercast.10 mph93%30.57 "HgN/A
2:50 am46 °FOvercast.10 mph87%30.57 "HgN/A
2:20 am46 °FOvercast.9 mph87%30.57 "HgN/A
1:50 am46 °FOvercast.10 mph87%30.57 "HgN/A
1:20 am45 °FOvercast.8 mph87%30.57 "HgN/A
12:50 am45 °FOvercast.6 mph87%30.57 "HgN/A
11:20 pm
Fri, Feb 3
45 °FPassing clouds.8 mph81%30.57 "HgN/A
10:50 pm43 °FQuite cool.8 mph87%30.54 "HgN/A
10:20 pm45 °FQuite cool.9 mph81%30.54 "HgN/A
9:20 pm46 °FCool.9 mph76%30.54 "HgN/A
8:50 pm46 °FCool.12 mph82%30.51 "HgN/A
8:20 pm48 °FCool.12 mph76%30.51 "HgN/A
7:20 pm48 °FOvercast.15 mph82%30.51 "HgN/A
6:50 pm50 °FOvercast.15 mph76%30.51 "HgN/A
6:20 pm50 °FOvercast.17 mph82%30.51 "HgN/A
5:50 pm50 °FPassing clouds.17 mph82%30.48 "HgN/A
5:20 pm50 °FPassing clouds.18 mph82%30.48 "HgN/A
4:50 pm50 °FPassing clouds.15 mph82%30.48 "HgN/A
4:20 pm50 °FCool.17 mph82%30.48 "HgN/A
3:50 pm52 °FPassing clouds.16 mph77%30.45 "HgN/A
3:20 pm52 °FPassing clouds.18 mph77%30.45 "HgN/A
2:50 pm52 °FScattered clouds.15 mph82%30.45 "HgN/A
2:20 pm52 °FOvercast.15 mph77%30.45 "HgN/A
1:50 pm52 °FScattered clouds.14 mph77%30.45 "HgN/A
1:20 pm52 °FPartly sunny.15 mph82%30.45 "HgN/A
12:50 pm54 °FPartly sunny.15 mph77%30.45 "HgN/A
12:20 pm50 °FPartly sunny.15 mph82%30.45 "HgN/A
Weather by CustomWeather, © 2023

See weather overview